createdAt,value
2023-04-08T00:02:13.899Z,64.35
2023-04-08T00:04:43.959Z,64.24
2023-04-08T00:07:14.377Z,64.19
2023-04-08T00:09:43.268Z,64.37
2023-04-08T00:12:12.369Z,64.48
2023-04-08T00:14:41.975Z,64.43
2023-04-08T00:17:10.618Z,64.53
2023-04-08T00:19:39.258Z,64.48
2023-04-08T00:22:10.087Z,64.38
2023-04-08T00:24:40.843Z,64.38
2023-04-08T00:27:13.811Z,64.55
2023-04-08T00:29:43.013Z,64.32
2023-04-08T00:32:12.106Z,64.41
2023-04-08T00:34:40.495Z,64.33
2023-04-08T00:37:09.313Z,64.23
2023-04-08T00:39:38.096Z,64.17
2023-04-08T00:42:06.965Z,64.28
2023-04-08T00:44:35.649Z,64.52
2023-04-08T00:47:04.665Z,64.47
2023-04-08T00:49:33.231Z,64.40
2023-04-08T00:52:02.020Z,64.42
2023-04-08T00:54:32.070Z,64.32
2023-04-08T00:57:01.564Z,64.25
2023-04-08T00:59:30.035Z,64.19
2023-04-08T01:02:23.643Z,64.10
2023-04-08T01:05:07.854Z,64.26
2023-04-08T01:07:38.183Z,64.70
2023-04-08T01:10:14.244Z,64.78
2023-04-08T01:12:45.112Z,65.07
2023-04-08T01:15:13.464Z,65.45
2023-04-08T01:17:42.434Z,65.59
2023-04-08T01:20:11.354Z,65.70
2023-04-08T01:23:02.167Z,65.77
2023-04-08T01:25:32.631Z,66.00
2023-04-08T01:28:02.300Z,66.28
2023-04-08T01:30:31.605Z,66.36
2023-04-08T01:33:00.065Z,66.75
2023-04-08T01:35:28.848Z,67.09
2023-04-08T01:37:59.780Z,67.18
2023-04-08T01:40:28.307Z,67.34
2023-04-08T01:42:57.615Z,67.65
2023-04-08T01:45:25.993Z,67.73
2023-04-08T01:47:54.693Z,67.93
2023-04-08T01:50:23.984Z,67.92
2023-04-08T01:52:55.541Z,67.93
2023-04-08T01:55:23.921Z,67.97
2023-04-08T01:57:53.029Z,67.98
2023-04-08T02:00:27.893Z,67.93
2023-04-08T02:02:57.264Z,67.78
2023-04-08T02:05:25.736Z,67.93
2023-04-08T02:07:54.237Z,68.06
2023-04-08T02:10:23.359Z,68.04
2023-04-08T02:12:52.012Z,68.25
2023-04-08T02:15:20.698Z,68.36
2023-04-08T02:18:01.122Z,68.27
2023-04-08T02:20:41.524Z,68.27
2023-04-08T02:23:20.141Z,68.34
2023-04-08T02:25:48.830Z,68.49
2023-04-08T02:28:18.754Z,68.50
2023-04-08T02:30:49.542Z,68.79
2023-04-08T02:33:22.292Z,68.96
2023-04-08T02:35:55.045Z,68.85
2023-04-08T02:38:30.160Z,68.80
2023-04-08T02:40:59.185Z,68.75
2023-04-08T02:43:32.892Z,68.80
2023-04-08T02:46:10.641Z,68.72
2023-04-08T02:48:40.320Z,69.04
2023-04-08T02:51:08.789Z,69.03
2023-04-08T02:53:39.628Z,69.10
2023-04-08T02:56:11.890Z,69.18
2023-04-08T02:58:40.583Z,69.14
2023-04-08T03:01:09.239Z,69.25
2023-04-08T03:03:40.065Z,69.34
2023-04-08T03:06:08.696Z,69.49
2023-04-08T03:08:37.186Z,69.80
2023-04-08T03:11:06.481Z,69.83
2023-04-08T03:13:35.890Z,69.70
2023-04-08T03:16:04.575Z,69.56
2023-04-08T03:18:33.983Z,69.74
2023-04-08T03:21:03.678Z,70.27
2023-04-08T03:23:34.020Z,70.55
2023-04-08T03:26:02.294Z,70.69
2023-04-08T03:28:30.853Z,70.98
2023-04-08T03:31:01.115Z,71.42
2023-04-08T03:33:31.127Z,71.56
2023-04-08T03:35:59.523Z,71.86
2023-04-08T03:38:28.197Z,71.91
2023-04-08T03:40:56.681Z,72.02
2023-04-08T03:43:27.949Z,72.38
2023-04-08T03:45:56.978Z,72.31
2023-04-08T03:48:25.406Z,72.48
2023-04-08T03:50:54.200Z,72.36
2023-04-08T03:53:24.126Z,72.42
2023-04-08T03:55:53.314Z,72.60
2023-04-08T03:58:21.797Z,72.76
2023-04-08T04:00:50.793Z,72.84
2023-04-08T04:03:20.094Z,72.88
2023-04-08T04:05:54.009Z,72.93
2023-04-08T04:08:22.798Z,73.01
2023-04-08T04:10:51.897Z,73.17
2023-04-08T04:13:20.689Z,73.30
2023-04-08T04:15:49.513Z,73.33
2023-04-08T04:18:19.343Z,73.64
2023-04-08T04:20:47.779Z,73.66
2023-04-08T04:23:16.670Z,73.59
2023-04-08T04:25:45.573Z,73.51
2023-04-08T04:28:17.728Z,73.60
2023-04-08T04:30:48.581Z,73.66
2023-04-08T04:33:17.362Z,73.76
2023-04-08T04:35:48.322Z,73.89
2023-04-08T04:38:16.683Z,73.74
2023-04-08T04:40:48.032Z,74.12
2023-04-08T04:43:17.552Z,74.43
2023-04-08T04:45:47.577Z,74.54
2023-04-08T04:48:16.775Z,74.93
2023-04-08T04:50:45.961Z,75.36
2023-04-08T04:53:19.051Z,75.52
2023-04-08T04:55:49.074Z,75.66
2023-04-08T04:58:18.399Z,75.93
2023-04-08T05:00:47.169Z,76.18
2023-04-08T05:03:16.952Z,76.02
2023-04-08T05:05:53.190Z,75.99
2023-04-08T05:08:22.939Z,75.97
2023-04-08T05:10:51.759Z,75.90
2023-04-08T05:13:28.690Z,75.67
2023-04-08T05:16:02.142Z,75.75
2023-04-08T05:18:31.238Z,75.68
2023-04-08T05:21:05.261Z,75.60
2023-04-08T05:23:35.380Z,75.45
2023-04-08T05:26:03.797Z,75.64
2023-04-08T05:28:43.504Z,75.76
2023-04-08T05:31:12.240Z,75.74
2023-04-08T05:33:41.091Z,75.59
2023-04-08T05:36:11.454Z,75.66
2023-04-08T05:38:40.815Z,75.69
2023-04-08T05:41:10.962Z,75.67
2023-04-08T05:43:39.332Z,75.74
2023-04-08T05:46:08.424Z,75.65
2023-04-08T05:48:37.318Z,75.62
2023-04-08T05:51:07.029Z,75.51
2023-04-08T05:53:37.252Z,75.53
2023-04-08T05:56:05.832Z,75.59
2023-04-08T05:58:35.540Z,75.22
2023-04-08T06:01:04.149Z,75.36
2023-04-08T06:03:33.738Z,75.53
2023-04-08T06:06:02.838Z,75.48
2023-04-08T06:08:31.316Z,75.56
2023-04-08T06:11:04.415Z,75.67
2023-04-08T06:13:38.324Z,75.70
2023-04-08T06:16:14.207Z,76.25
2023-04-08T06:18:47.855Z,76.42
2023-04-08T06:21:17.843Z,76.38
2023-04-08T06:23:46.175Z,76.25
2023-04-08T06:26:14.967Z,76.31
2023-04-08T06:28:43.449Z,76.89
2023-04-08T06:31:14.496Z,77.22
2023-04-08T06:33:43.699Z,77.25
2023-04-08T06:36:13.614Z,76.83
2023-04-08T06:38:42.417Z,76.79
2023-04-08T06:41:11.197Z,77.09
2023-04-08T06:43:39.595Z,76.87
2023-04-08T06:46:08.009Z,76.62
2023-04-08T06:48:38.016Z,76.21
2023-04-08T06:51:08.138Z,75.86
2023-04-08T06:53:37.405Z,75.67
2023-04-08T06:56:05.791Z,75.63
2023-04-08T06:58:36.210Z,75.72
2023-04-08T07:01:05.367Z,75.70
2023-04-08T07:03:34.420Z,75.73
2023-04-08T07:06:04.631Z,76.06
2023-04-08T07:08:33.118Z,76.48
2023-04-08T07:11:05.928Z,76.43
2023-04-08T07:13:34.486Z,75.48
2023-04-08T07:16:02.875Z,75.80
2023-04-08T07:18:34.112Z,75.65
2023-04-08T07:21:02.704Z,75.39
2023-04-08T07:23:33.039Z,75.68
2023-04-08T07:26:07.245Z,76.16
2023-04-08T07:28:35.829Z,76.26
2023-04-08T07:31:11.460Z,75.84
2023-04-08T07:33:39.962Z,76.11
2023-04-08T07:36:12.134Z,75.73
2023-04-08T07:38:41.232Z,75.47
2023-04-08T07:41:12.169Z,74.55
2023-04-08T07:43:41.167Z,74.01
2023-04-08T07:46:10.033Z,73.52
2023-04-08T07:48:38.979Z,73.82
2023-04-08T07:51:11.073Z,73.90
2023-04-08T07:53:43.391Z,73.62
2023-04-08T07:56:13.111Z,73.47
2023-04-08T07:58:42.127Z,73.10
2023-04-08T08:01:22.201Z,73.17
2023-04-08T08:03:53.281Z,73.11
2023-04-08T08:06:22.489Z,72.94
2023-04-08T08:08:53.228Z,72.85
2023-04-08T08:11:22.835Z,71.33
2023-04-08T08:13:53.883Z,70.42
2023-04-08T08:16:28.967Z,70.29
2023-04-08T08:18:58.366Z,69.85
2023-04-08T08:21:33.766Z,69.03
2023-04-08T08:24:02.154Z,67.48
2023-04-08T08:26:31.549Z,67.09
2023-04-08T08:29:02.494Z,67.65
2023-04-08T08:31:31.539Z,67.71
2023-04-08T08:34:00.172Z,67.21
2023-04-08T08:36:29.246Z,65.65
2023-04-08T08:38:57.580Z,65.41
2023-04-08T08:41:25.926Z,65.11
2023-04-08T08:43:54.629Z,64.07
2023-04-08T08:46:23.006Z,64.43
2023-04-08T08:48:51.789Z,64.27
2023-04-08T08:51:20.270Z,63.74
2023-04-08T08:53:51.168Z,63.17
2023-04-08T08:56:20.316Z,63.38
2023-04-08T08:58:49.403Z,63.28
2023-04-08T09:01:50.529Z,62.55
2023-04-08T09:04:22.743Z,62.48
2023-04-08T09:07:11.241Z,62.48
2023-04-08T09:09:52.263Z,61.70
2023-04-08T09:12:21.056Z,61.96
2023-04-08T09:14:50.753Z,61.69
2023-04-08T09:17:39.821Z,61.28
2023-04-08T09:20:15.416Z,61.75
2023-04-08T09:23:00.439Z,61.73
2023-04-08T09:25:32.244Z,61.60
2023-04-08T09:28:03.122Z,61.73
2023-04-08T09:30:32.675Z,61.36
2023-04-08T09:33:07.649Z,61.51
2023-04-08T09:35:36.823Z,61.31
2023-04-08T09:38:05.573Z,60.37
2023-04-08T09:40:36.850Z,59.80
2023-04-08T09:43:06.251Z,58.20
2023-04-08T09:45:34.722Z,57.97
2023-04-08T09:48:07.409Z,58.15
2023-04-08T09:50:39.354Z,58.23
2023-04-08T09:53:20.968Z,57.07
2023-04-08T09:55:52.115Z,57.56
2023-04-08T09:58:27.745Z,57.92
2023-04-08T10:00:58.609Z,57.49
2023-04-08T10:03:33.185Z,57.33
2023-04-08T10:06:06.715Z,57.16
2023-04-08T10:08:35.510Z,56.66
2023-04-08T10:11:04.058Z,55.96
2023-04-08T10:13:35.644Z,55.81
2023-04-08T10:16:26.425Z,54.73
2023-04-08T10:18:58.378Z,54.72
2023-04-08T10:21:35.605Z,54.70
2023-04-08T10:24:07.397Z,55.01
2023-04-08T10:26:37.494Z,54.18
2023-04-08T10:29:18.898Z,53.93
2023-04-08T10:31:48.534Z,53.89
2023-04-08T10:34:23.067Z,53.76
2023-04-08T10:36:51.700Z,53.73
2023-04-08T10:39:21.721Z,54.04
2023-04-08T10:41:51.042Z,53.78
2023-04-08T10:44:20.569Z,53.21
2023-04-08T10:46:50.558Z,52.72
2023-04-08T10:49:19.236Z,52.42
2023-04-08T10:51:49.069Z,52.59
2023-04-08T10:54:18.459Z,52.39
2023-04-08T10:56:49.643Z,51.99
2023-04-08T10:59:32.261Z,51.82
2023-04-08T11:02:01.786Z,51.54
2023-04-08T11:04:31.117Z,51.77
2023-04-08T11:06:59.949Z,51.37
2023-04-08T11:09:28.512Z,51.39
2023-04-08T11:11:56.891Z,51.12
2023-04-08T11:14:28.352Z,51.24
2023-04-08T11:16:57.037Z,50.94
2023-04-08T11:19:25.424Z,49.84
2023-04-08T11:21:54.109Z,49.04
2023-04-08T11:24:22.800Z,48.34
2023-04-08T11:26:55.690Z,48.63
2023-04-08T11:29:24.190Z,48.61
2023-04-08T11:31:54.292Z,48.61
2023-04-08T11:34:24.535Z,49.59
2023-04-08T11:36:53.626Z,50.81
2023-04-08T11:39:25.066Z,51.35
2023-04-08T11:41:53.654Z,52.27
2023-04-08T11:44:31.244Z,52.88
2023-04-08T11:47:02.500Z,51.81
2023-04-08T11:49:44.818Z,51.88
2023-04-08T11:52:13.932Z,52.36
2023-04-08T11:54:42.915Z,52.80
2023-04-08T11:57:11.797Z,52.90
2023-04-08T11:59:40.690Z,52.10
2023-04-08T12:02:09.402Z,50.92
2023-04-08T12:04:38.218Z,50.48
2023-04-08T12:07:06.656Z,49.71
2023-04-08T12:12:14.170Z,49.89
2023-04-08T12:14:44.288Z,50.80
2023-04-08T12:17:13.122Z,50.44
2023-04-08T12:19:47.706Z,51.11
2023-04-08T12:22:17.112Z,52.34
2023-04-08T12:24:45.697Z,52.65
2023-04-08T12:27:14.181Z,52.96
2023-04-08T12:29:43.898Z,54.04
2023-04-08T12:32:12.694Z,54.96
2023-04-08T12:34:41.686Z,55.53
2023-04-08T12:37:10.892Z,58.00
2023-04-08T12:39:40.967Z,59.10
2023-04-08T12:42:09.502Z,59.00
2023-04-08T12:44:37.916Z,59.25
2023-04-08T12:47:06.583Z,59.13
2023-04-08T12:49:48.659Z,58.64
2023-04-08T12:52:22.505Z,56.64
2023-04-08T12:54:52.081Z,55.81
2023-04-08T12:57:20.464Z,56.01
2023-04-08T12:59:49.174Z,55.93
2023-04-08T13:02:17.982Z,56.42
2023-04-08T13:04:46.425Z,56.52
2023-04-08T13:07:15.113Z,55.98
2023-04-08T13:09:45.774Z,55.69
2023-04-08T13:12:19.053Z,55.59
2023-04-08T13:14:47.934Z,56.39
2023-04-08T13:17:16.726Z,57.19
2023-04-08T13:19:45.309Z,57.57
2023-04-08T13:22:14.508Z,58.13
2023-04-08T13:24:48.040Z,58.02
2023-04-08T13:27:16.392Z,58.08
2023-04-08T13:29:48.571Z,57.11
2023-04-08T13:32:17.192Z,57.32
2023-04-08T13:34:45.633Z,56.96
2023-04-08T13:37:14.222Z,56.48
2023-04-08T13:39:42.801Z,57.12
2023-04-08T13:42:11.179Z,57.93
2023-04-08T13:44:39.761Z,58.60
2023-04-08T13:47:08.250Z,59.26
2023-04-08T13:49:37.163Z,59.52
2023-04-08T13:52:05.618Z,58.81
2023-04-08T13:54:36.558Z,59.03
2023-04-08T13:57:05.676Z,59.42
2023-04-08T13:59:34.450Z,59.38
2023-04-08T14:02:04.113Z,59.34
2023-04-08T14:04:33.889Z,59.36
2023-04-08T14:07:02.867Z,58.50
2023-04-08T14:09:31.653Z,57.42
2023-04-08T14:12:00.034Z,57.22
2023-04-08T14:14:28.519Z,57.52
2023-04-08T14:17:01.049Z,57.95
2023-04-08T14:19:29.581Z,57.81
2023-04-08T14:22:03.606Z,58.19
2023-04-08T14:24:32.600Z,58.46
2023-04-08T14:27:01.083Z,58.90
2023-04-08T14:29:31.091Z,59.43
2023-04-08T14:31:59.781Z,60.04
2023-04-08T14:34:28.364Z,60.93
2023-04-08T14:36:56.953Z,61.24
2023-04-08T14:39:25.637Z,61.67
2023-04-08T14:41:57.609Z,62.98
2023-04-08T14:44:26.395Z,63.88
2023-04-08T14:46:57.469Z,63.69
2023-04-08T14:49:26.020Z,65.71
2023-04-08T14:51:54.409Z,66.38
2023-04-08T14:54:23.304Z,66.85
2023-04-08T14:56:51.987Z,67.51
2023-04-08T14:59:21.803Z,68.24
2023-04-08T15:01:50.332Z,69.01
2023-04-08T15:04:18.921Z,69.35
2023-04-08T15:06:47.462Z,69.73
2023-04-08T15:09:16.866Z,70.15
2023-04-08T15:11:45.171Z,70.20
2023-04-08T15:14:15.682Z,70.39
2023-04-08T15:16:44.166Z,70.53
2023-04-08T15:19:12.852Z,70.61
2023-04-08T15:21:42.166Z,70.74
2023-04-08T15:24:10.758Z,70.85
2023-04-08T15:26:40.349Z,70.89
2023-04-08T15:29:08.842Z,71.11
2023-04-08T15:31:37.436Z,71.24
2023-04-08T15:34:05.906Z,71.03
2023-04-08T15:36:37.742Z,70.94
2023-04-08T15:39:06.863Z,71.15
2023-04-08T15:41:36.583Z,71.54
2023-04-08T15:44:05.062Z,71.40
2023-04-08T15:46:34.971Z,71.58
2023-04-08T15:49:04.905Z,71.50
2023-04-08T15:51:34.426Z,71.46
2023-04-08T15:54:03.409Z,71.23
2023-04-08T15:56:31.893Z,70.90
2023-04-08T15:59:01.095Z,70.63
2023-04-08T16:01:29.842Z,70.41
2023-04-08T16:03:59.545Z,70.81
2023-04-08T16:06:28.090Z,71.39
2023-04-08T16:08:57.097Z,71.57
2023-04-08T16:11:27.911Z,71.37
2023-04-08T16:13:56.230Z,71.27
2023-04-08T16:16:25.022Z,71.06
2023-04-08T16:18:53.992Z,70.72
2023-04-08T16:21:22.582Z,70.22
2023-04-08T16:23:52.158Z,70.53
2023-04-08T16:26:22.302Z,70.83
2023-04-08T16:28:52.473Z,71.18
2023-04-08T16:31:21.143Z,71.05
2023-04-08T16:33:49.814Z,71.17
2023-04-08T16:36:19.405Z,71.07
2023-04-08T16:38:47.899Z,70.97
2023-04-08T16:41:16.177Z,71.06
2023-04-08T16:43:44.660Z,71.29
2023-04-08T16:46:15.535Z,71.41
2023-04-08T16:48:45.228Z,71.94
2023-04-08T16:51:13.697Z,72.10
2023-04-08T16:53:42.899Z,72.29
2023-04-08T16:56:15.062Z,72.56
2023-04-08T16:58:43.863Z,72.71
2023-04-08T17:01:16.500Z,73.02
2023-04-08T17:03:48.170Z,73.10
2023-04-08T17:06:18.128Z,73.06
2023-04-08T17:08:49.404Z,72.77
2023-04-08T17:11:18.392Z,72.67
2023-04-08T17:13:47.262Z,72.67
2023-04-08T17:16:17.842Z,72.91
2023-04-08T17:18:47.104Z,73.21
2023-04-08T17:21:15.886Z,73.29
2023-04-08T17:23:52.572Z,73.08
2023-04-08T17:26:26.580Z,73.28
2023-04-08T17:28:55.270Z,73.10
2023-04-08T17:31:24.104Z,73.26
2023-04-08T17:33:53.161Z,73.42
2023-04-08T17:36:21.565Z,73.39
2023-04-08T17:38:51.163Z,73.17
2023-04-08T17:41:38.314Z,72.67
2023-04-08T17:44:11.979Z,72.57
2023-04-08T17:46:41.706Z,72.69
2023-04-08T17:49:15.091Z,72.80
2023-04-08T17:51:44.194Z,72.88
2023-04-08T17:54:12.674Z,72.98
2023-04-08T17:56:46.663Z,72.98
2023-04-08T17:59:17.634Z,72.97
2023-04-08T18:01:48.271Z,73.05
2023-04-08T18:04:17.203Z,72.90
2023-04-08T18:06:45.846Z,72.78
2023-04-08T18:09:21.398Z,72.58
2023-04-08T18:11:52.031Z,72.57
2023-04-08T18:14:20.719Z,72.16
2023-04-08T18:16:53.892Z,71.91
2023-04-08T18:19:26.598Z,71.83
2023-04-08T18:21:55.798Z,71.60
2023-04-08T18:24:24.586Z,71.43
2023-04-08T18:27:03.466Z,71.07
2023-04-08T18:29:33.559Z,71.13
2023-04-08T18:32:02.344Z,71.37
2023-04-08T18:34:32.249Z,71.78
2023-04-08T18:37:04.317Z,71.96
2023-04-08T18:39:32.700Z,72.24
2023-04-08T18:42:01.802Z,72.78
2023-04-08T18:44:30.794Z,73.34
2023-04-08T18:46:59.495Z,73.77
2023-04-08T18:49:30.658Z,74.11
2023-04-08T18:52:03.189Z,74.14
2023-04-08T18:54:32.338Z,74.16
2023-04-08T18:57:03.146Z,74.14
2023-04-08T18:59:32.965Z,74.29
2023-04-08T19:02:01.807Z,74.21
2023-04-08T19:04:31.104Z,73.74
2023-04-08T19:07:00.672Z,73.57
2023-04-08T19:09:29.251Z,73.36
2023-04-08T19:11:57.842Z,73.36
2023-04-08T19:14:26.750Z,73.41
2023-04-08T19:16:57.067Z,73.32
2023-04-08T19:19:26.569Z,73.11
2023-04-08T19:21:55.464Z,73.03
2023-04-08T19:24:26.493Z,72.71
2023-04-08T19:26:54.850Z,72.60
2023-04-08T19:29:24.805Z,72.31
2023-04-08T19:31:54.008Z,72.07
2023-04-08T19:34:22.503Z,72.17
2023-04-08T19:36:51.181Z,72.48
2023-04-08T19:39:20.077Z,73.05
2023-04-08T19:41:48.415Z,73.70
2023-04-08T19:44:16.840Z,74.15
2023-04-08T19:46:45.675Z,74.55
2023-04-08T19:49:14.111Z,74.63
2023-04-08T19:51:42.599Z,74.81
2023-04-08T19:54:14.467Z,74.95
2023-04-08T19:56:44.168Z,75.04
2023-04-08T19:59:12.563Z,75.01
2023-04-08T20:01:43.248Z,74.97
2023-04-08T20:04:12.165Z,74.80
2023-04-08T20:06:40.768Z,74.79
2023-04-08T20:09:10.180Z,74.55
2023-04-08T20:11:38.664Z,74.56
2023-04-08T20:14:10.216Z,74.52
2023-04-08T20:16:38.603Z,74.37
2023-04-08T20:19:14.253Z,74.24
2023-04-08T20:21:43.558Z,74.22
2023-04-08T20:24:13.070Z,74.33
2023-04-08T20:26:41.457Z,74.32
2023-04-08T20:29:10.160Z,74.26
2023-04-08T20:31:38.591Z,74.18
2023-04-08T20:34:10.846Z,74.10
2023-04-08T20:36:40.196Z,74.22
2023-04-08T20:39:12.365Z,74.23
2023-04-08T20:41:41.568Z,74.24
2023-04-08T20:44:10.888Z,74.29
2023-04-08T20:46:47.897Z,74.33
2023-04-08T20:49:18.906Z,74.43
2023-04-08T20:51:47.385Z,74.72
2023-04-08T20:54:16.182Z,74.84
2023-04-08T20:56:44.760Z,74.99
2023-04-08T20:59:17.448Z,75.05
2023-04-08T21:01:48.413Z,75.26
2023-04-08T21:04:16.975Z,75.18
2023-04-08T21:06:45.456Z,75.02
2023-04-08T21:09:15.397Z,74.82
2023-04-08T21:11:43.858Z,75.06
2023-04-08T21:14:16.131Z,75.20
2023-04-08T21:16:46.794Z,75.16
2023-04-08T21:19:15.044Z,75.00
2023-04-08T21:21:50.081Z,74.96
2023-04-08T21:24:18.362Z,74.82
2023-04-08T21:26:47.149Z,74.63
2023-04-08T21:29:15.749Z,74.76
2023-04-08T21:31:44.069Z,74.81
2023-04-08T21:34:14.036Z,74.85
2023-04-08T21:36:42.318Z,74.82
2023-04-08T21:39:10.595Z,74.78
2023-04-08T21:41:39.892Z,74.86
2023-04-08T21:44:09.466Z,74.86
2023-04-08T21:46:38.294Z,74.72
2023-04-08T21:49:07.286Z,74.50
2023-04-08T21:51:36.182Z,74.50
2023-04-08T21:54:05.196Z,74.51
2023-04-08T21:56:34.993Z,74.60
2023-04-08T21:59:04.400Z,74.56
2023-04-08T22:01:33.018Z,74.89
2023-04-08T22:04:04.460Z,75.42
2023-04-08T22:06:33.155Z,75.33
2023-04-08T22:09:02.947Z,75.08
2023-04-08T22:11:31.936Z,75.03
2023-04-08T22:14:00.316Z,75.05
2023-04-08T22:16:29.842Z,75.26
2023-04-08T22:18:58.618Z,75.39
2023-04-08T22:21:30.392Z,75.49
2023-04-08T22:23:59.080Z,75.75
2023-04-08T22:26:27.856Z,75.81
2023-04-08T22:28:57.673Z,75.82
2023-04-08T22:31:26.668Z,76.30
2023-04-08T22:33:56.381Z,76.83
2023-04-08T22:36:25.070Z,77.40
2023-04-08T22:38:54.033Z,77.75
2023-04-08T22:41:22.761Z,77.74
2023-04-08T22:43:52.782Z,77.67
2023-04-08T22:46:21.617Z,77.78
2023-04-08T22:48:50.782Z,77.60
2023-04-08T22:51:19.453Z,77.43
2023-04-08T22:53:47.730Z,77.27
2023-04-08T22:56:16.111Z,76.83
2023-04-08T22:58:44.388Z,76.12
2023-04-08T23:01:14.044Z,75.54
2023-04-08T23:03:44.254Z,75.26
2023-04-08T23:06:12.447Z,75.24
2023-04-08T23:08:43.452Z,75.21
2023-04-08T23:11:11.924Z,75.20
2023-04-08T23:13:45.636Z,75.02
2023-04-08T23:16:14.517Z,75.06
2023-04-08T23:18:43.345Z,75.01
2023-04-08T23:21:20.618Z,75.07
2023-04-08T23:23:49.499Z,75.41
2023-04-08T23:26:18.703Z,75.88
2023-04-08T23:28:52.567Z,76.43
2023-04-08T23:31:21.257Z,76.99
2023-04-08T23:33:51.003Z,77.54
2023-04-08T23:36:20.412Z,77.95
2023-04-08T23:38:49.907Z,78.20
2023-04-08T23:41:18.370Z,78.41
2023-04-08T23:43:55.197Z,78.12
2023-04-08T23:46:23.594Z,78.01
2023-04-08T23:48:57.892Z,78.06
2023-04-08T23:51:28.208Z,77.96
2023-04-08T23:53:56.719Z,77.68
2023-04-08T23:56:25.275Z,77.54
2023-04-08T23:58:53.952Z,77.61
